Time;durP1;ratioP1;P1;durP2;ratioP2;P2;SDS_P1;SDS_P2;PMS_P1;PMS_P2;Temp;Humidity;BMP_temperature;BMP_pressure;BME280_temperature;BME280_humidity;BME280_pressure;Samples;Min_cycle;Max_cycle;Signal;HPM_P1;HPM_P2
2021/05/16 00:02:18;;;;;;;29.00;18.13;;;;;;;;;;4754571;30;20696;-81
2021/05/16 00:04:44;;;;;;;27.20;17.50;;;11.10;99.90;;;;;;4754027;30;20672;-82
2021/05/16 00:07:10;;;;;;;28.97;18.37;;;;;;;;;;4739658;30;20194;-82
2021/05/16 00:09:36;;;;;;;25.47;17.23;;;11.10;99.90;;;;;;4755124;30;20191;-82
2021/05/16 00:12:03;;;;;;;28.00;17.30;;;11.00;99.90;;;;;;4739522;30;20203;-82
2021/05/16 00:14:29;;;;;;;26.10;17.43;;;11.00;99.90;;;;;;4755076;30;20190;-82
2021/05/16 00:16:55;;;;;;;21.10;14.50;;;11.00;99.90;;;;;;4755461;30;20183;-82
2021/05/16 00:19:21;;;;;;;21.60;15.20;;;;;;;;;;4754011;30;20700;-81
2021/05/16 00:21:47;;;;;;;23.55;15.07;;;11.70;99.90;;;;;;4753837;30;20218;-82
2021/05/16 00:24:13;;;;;;;21.60;14.00;;;;;;;;;;4754125;30;20207;-81
2021/05/16 00:26:39;;;;;;;20.03;13.00;;;11.20;99.90;;;;;;4753475;30;20649;-81
2021/05/16 00:29:05;;;;;;;19.13;13.63;;;;;;;;;;4739392;30;20195;-82
2021/05/16 00:31:31;;;;;;;25.67;14.07;;;11.90;99.90;;;;;;4755343;30;20186;-82
2021/05/16 00:33:56;;;;;;;20.53;14.03;;;11.60;99.90;;;;;;4753926;30;20187;-82
2021/05/16 00:36:23;;;;;;;26.30;14.43;;;11.40;99.90;;;;;;4755418;30;20557;-81
2021/05/16 00:38:50;;;;;;;20.10;14.63;;;11.40;99.90;;;;;;4753441;30;20190;-82
2021/05/16 00:41:15;;;;;;;24.53;14.53;;;11.20;99.90;;;;;;4753948;30;20214;-82
2021/05/16 00:43:41;;;;;;;18.43;13.23;;;11.00;99.90;;;;;;4753447;30;20259;-82
2021/05/16 00:46:09;;;;;;;21.87;14.73;;;11.00;99.90;;;;;;4753780;30;20523;-81
2021/05/16 00:48:36;;;;;;;22.00;14.07;;;11.40;99.90;;;;;;4753401;30;20198;-82
2021/05/16 00:51:02;;;;;;;21.98;14.23;;;11.30;99.90;;;;;;4753473;30;20198;-82
2021/05/16 00:53:28;;;;;;;18.50;12.77;;;;;;;;;;4753874;30;20194;-81
2021/05/16 00:55:55;;;;;;;24.03;14.67;;;11.20;99.90;;;;;;4754340;30;20195;-82
2021/05/16 00:58:22;;;;;;;20.77;14.73;;;11.20;99.90;;;;;;4760130;30;20190;-81
2021/05/16 01:00:48;;;;;;;18.80;13.27;;;;;;;;;;4757756;30;20238;-82
2021/05/16 01:03:14;;;;;;;22.57;13.13;;;11.20;99.90;;;;;;4754091;30;20191;-82
2021/05/16 01:05:42;;;;;;;21.15;14.15;;;11.20;99.90;;;;;;4754665;30;20539;-82
2021/05/16 01:08:08;;;;;;;18.87;13.90;;;;;;;;;;4754780;30;20238;-81
2021/05/16 01:10:34;;;;;;;21.87;14.27;;;;;;;;;;4753729;30;20202;-83
2021/05/16 01:13:04;;;;;;;18.73;12.93;;;11.60;99.90;;;;;;4754678;30;20191;-81
2021/05/16 01:15:30;;;;;;;19.42;12.73;;;11.40;99.90;;;;;;4754608;30;20183;-82
2021/05/16 01:17:55;;;;;;;21.67;13.20;;;11.40;99.90;;;;;;4752979;30;20299;-81
2021/05/16 01:20:26;;;;;;;19.58;13.07;;;11.50;99.90;;;;;;4752981;30;20605;-82
2021/05/16 01:23:00;;;;;;;18.67;12.90;;;11.20;99.90;;;;;;4753937;30;20222;-82
2021/05/16 01:25:28;;;;;;;19.38;13.45;;;11.70;99.90;;;;;;4753295;30;20575;-82
2021/05/16 01:27:54;;;;;;;19.00;12.32;;;11.10;99.90;;;;;;4754132;30;20247;-82
2021/05/16 01:30:21;;;;;;;19.15;12.50;;;11.70;99.90;;;;;;4738170;30;20311;-82
2021/05/16 01:32:47;;;;;;;16.43;11.67;;;11.40;99.90;;;;;;4738062;30;20233;-83
2021/05/16 01:35:13;;;;;;;16.57;12.10;;;11.50;99.90;;;;;;4753187;30;20630;-81
2021/05/16 01:37:39;;;;;;;19.30;12.03;;;11.60;99.90;;;;;;4752364;30;20194;-83
2021/05/16 01:40:06;;;;;;;16.10;12.07;;;11.50;99.90;;;;;;4752787;30;20205;-82
2021/05/16 01:42:32;;;;;;;20.45;11.80;;;11.80;99.90;;;;;;4753803;30;20219;-81
2021/05/16 01:45:03;;;;;;;16.90;11.40;;;11.70;99.90;;;;;;4767586;30;20201;-82
2021/05/16 01:47:30;;;;;;;20.00;11.15;;;11.80;99.90;;;;;;4738776;30;20225;-82
2021/05/16 01:50:06;;;;;;;16.50;10.90;;;11.80;99.90;;;;;;4753530;30;20183;-82
2021/05/16 01:52:32;;;;;;;16.38;11.07;;;11.80;99.90;;;;;;4752546;30;20197;-82
2021/05/16 01:54:58;;;;;;;17.13;11.00;;;;;;;;;;4753489;30;20556;-81
2021/05/16 01:57:25;;;;;;;16.30;10.38;;;11.60;99.90;;;;;;4753955;30;20190;-82
2021/05/16 01:59:51;;;;;;;13.23;9.88;;;12.10;99.90;;;;;;4752076;30;20191;-82
2021/05/16 02:02:17;;;;;;;16.13;11.37;;;11.70;99.90;;;;;;4752380;30;20226;-81
2021/05/16 02:04:44;;;;;;;13.77;10.18;;;11.80;99.90;;;;;;4753293;30;20198;-82
2021/05/16 02:07:10;;;;;;;14.57;10.68;;;12.00;99.90;;;;;;4752173;30;20190;-81
2021/05/16 02:09:37;;;;;;;13.43;10.15;;;11.70;99.90;;;;;;4753286;30;20552;-81
2021/05/16 02:12:04;;;;;;;13.10;10.55;;;11.60;99.90;;;;;;4753385;30;20240;-82
2021/05/16 02:14:31;;;;;;;17.65;10.30;;;11.60;99.90;;;;;;4752475;30;20306;-81
2021/05/16 02:16:59;;;;;;;16.35;11.65;;;11.70;99.90;;;;;;4751968;30;20552;-82
2021/05/16 02:19:25;;;;;;;13.77;10.55;;;11.50;99.90;;;;;;4770303;30;20234;-81
2021/05/16 02:21:52;;;;;;;15.18;11.68;;;12.10;99.90;;;;;;4770623;30;20216;-82
2021/05/16 02:24:18;;;;;;;17.40;12.32;;;11.40;99.90;;;;;;4770840;30;20278;-81
2021/05/16 02:26:45;;;;;;;17.25;10.05;;;11.90;99.90;;;;;;4754585;30;20190;-82
2021/05/16 02:29:11;;;;;;;15.68;10.88;;;12.10;99.90;;;;;;4770625;30;20286;-81
2021/05/16 02:31:37;;;;;;;16.65;11.40;;;11.70;99.90;;;;;;4754766;30;20197;-81
2021/05/16 02:34:04;;;;;;;17.08;11.77;;;11.50;99.90;;;;;;4754282;30;20192;-81
2021/05/16 02:36:30;;;;;;;16.77;11.60;;;11.70;99.90;;;;;;4770835;30;20216;-81
2021/05/16 02:38:56;;;;;;;14.88;11.35;;;11.80;99.90;;;;;;4770408;30;20193;-81
2021/05/16 02:41:22;;;;;;;14.90;10.95;;;11.80;99.90;;;;;;4771063;30;20209;-81
2021/05/16 02:43:48;;;;;;;15.40;10.30;;;;;;;;;;4754139;30;20289;-82
2021/05/16 02:46:14;;;;;;;17.52;10.70;;;11.90;99.90;;;;;;4754699;30;20251;-82
2021/05/16 02:48:40;;;;;;;15.02;10.70;;;12.00;99.90;;;;;;4754335;30;20278;-81
2021/05/16 02:51:06;;;;;;;16.17;10.18;;;;;;;;;;4770187;30;21264;-81
2021/05/16 02:53:32;;;;;;;12.82;10.52;;;11.70;99.90;;;;;;4754423;30;20194;-81
2021/05/16 02:55:58;;;;;;;20.08;10.52;;;11.90;99.90;;;;;;4753987;30;20239;-81
2021/05/16 02:58:24;;;;;;;17.00;11.13;;;11.70;99.90;;;;;;4754465;30;20197;-80
2021/05/16 03:00:50;;;;;;;14.60;10.87;;;11.70;99.90;;;;;;4753925;30;20222;-82
2021/05/16 03:03:16;;;;;;;13.32;10.15;;;;;;;;;;4770156;30;20642;-81
2021/05/16 03:05:42;;;;;;;17.40;10.85;;;11.90;99.90;;;;;;4770199;30;20186;-81
2021/05/16 03:08:08;;;;;;;15.77;10.90;;;;;;;;;;4753860;30;20186;-82
2021/05/16 03:10:33;;;;;;;16.30;10.27;;;11.70;99.90;;;;;;4754320;30;20277;-82
2021/05/16 03:12:59;;;;;;;15.15;11.07;;;12.10;99.90;;;;;;4769886;30;20186;-81
2021/05/16 03:15:25;;;;;;;14.40;10.80;;;;;;;;;;4769685;30;20197;-82
2021/05/16 03:17:51;;;;;;;11.63;10.13;;;12.30;99.90;;;;;;4753298;30;20246;-81
2021/05/16 03:20:17;;;;;;;13.95;10.07;;;;;;;;;;4754245;30;20186;-81
2021/05/16 03:22:43;;;;;;;15.90;10.48;;;11.50;99.90;;;;;;4769810;30;20229;-81
2021/05/16 03:25:11;;;;;;;13.82;9.90;;;11.70;99.90;;;;;;4753565;30;20193;-81
2021/05/16 03:27:37;;;;;;;13.43;9.93;;;12.00;99.90;;;;;;4754000;30;20193;-81
2021/05/16 03:30:10;;;;;;;9.77;8.27;;;11.90;99.90;;;;;;4769626;30;20186;-81
2021/05/16 03:32:36;;;;;;;12.88;9.13;;;12.00;99.90;;;;;;4754235;30;20197;-81
2021/05/16 03:35:06;;;;;;;12.77;9.07;;;12.10;99.90;;;;;;4769738;30;20652;-82
2021/05/16 03:37:32;;;;;;;11.02;8.88;;;12.40;99.90;;;;;;4754033;30;20706;-81
2021/05/16 03:39:58;;;;;;;11.63;8.35;;;12.50;99.90;;;;;;4769639;30;20192;-82
2021/05/16 03:42:24;;;;;;;12.80;8.40;;;;;;;;;;4769744;30;20214;-81
2021/05/16 03:44:50;;;;;;;12.00;8.70;;;12.40;99.90;;;;;;4753751;30;20201;-81
2021/05/16 03:47:15;;;;;;;11.98;8.57;;;12.30;99.90;;;;;;4769718;30;20644;-81
2021/05/16 03:49:41;;;;;;;12.30;8.73;;;;;;;;;;4739255;30;20198;-81
2021/05/16 03:52:07;;;;;;;14.32;8.38;;;12.00;99.90;;;;;;4769361;30;20660;-82
2021/05/16 03:54:33;;;;;;;13.00;9.27;;;;;;;;;;4753927;30;20200;-81
2021/05/16 03:56:59;;;;;;;14.00;9.05;;;12.10;99.90;;;;;;4769443;30;20194;-81
2021/05/16 03:59:25;;;;;;;14.45;9.45;;;;;;;;;;4753606;30;20717;-81
2021/05/16 04:01:51;;;;;;;12.57;8.43;;;12.00;99.90;;;;;;4769853;30;20214;-81
2021/05/16 04:04:17;;;;;;;12.68;8.98;;;12.10;99.90;;;;;;4753679;30;20310;-82
2021/05/16 04:06:43;;;;;;;11.45;8.77;;;;;;;;;;4753780;30;20641;-81
2021/05/16 04:09:09;;;;;;;16.35;8.90;;;12.30;99.90;;;;;;4753481;30;20194;-82
2021/05/16 04:11:35;;;;;;;13.52;8.68;;;;;;;;;;4753574;30;20733;-81
2021/05/16 04:14:01;;;;;;;12.07;8.45;;;12.50;99.90;;;;;;4769486;30;20205;-82
2021/05/16 04:16:27;;;;;;;13.70;9.30;;;;;;;;;;4769668;30;20652;-82
2021/05/16 04:18:52;;;;;;;12.80;8.65;;;12.90;99.90;;;;;;4753436;30;20268;-82
2021/05/16 04:21:18;;;;;;;13.73;8.32;;;;;;;;;;4753171;30;20684;-82
2021/05/16 04:23:44;;;;;;;11.73;8.55;;;12.20;99.90;;;;;;4769521;30;20205;-81
2021/05/16 04:26:10;;;;;;;9.32;8.05;;;;;;;;;;4753301;30;20195;-81
2021/05/16 04:28:36;;;;;;;13.60;8.18;;;12.80;99.90;;;;;;4756133;30;20190;-81
2021/05/16 04:31:02;;;;;;;11.30;8.35;;;;;;;;;;4756873;30;20202;-82
2021/05/16 04:33:28;;;;;;;13.73;7.72;;;12.60;99.90;;;;;;4772961;30;20197;-81
2021/05/16 04:35:55;;;;;;;11.88;8.02;;;;;;;;;;4742167;30;20190;-83
2021/05/16 04:38:21;;;;;;;15.85;8.45;;;12.50;99.90;;;;;;4772312;30;20215;-82
2021/05/16 04:40:47;;;;;;;10.13;7.97;;;13.00;99.90;;;;;;4772733;30;20220;-82
2021/05/16 04:43:14;;;;;;;10.90;8.18;;;;;;;;;;4756523;30;20639;-82
2021/05/16 04:45:40;;;;;;;12.48;9.30;;;12.90;99.90;;;;;;4756639;30;20225;-81
2021/05/16 04:48:06;;;;;;;11.27;8.75;;;13.20;99.90;;;;;;4772088;30;20190;-82
2021/05/16 04:50:32;;;;;;;10.85;8.25;;;13.00;99.90;;;;;;4767743;30;20219;-82
2021/05/16 04:52:58;;;;;;;12.55;7.97;;;12.80;99.90;;;;;;4744248;30;20190;-82
2021/05/16 04:55:24;;;;;;;9.63;8.25;;;13.30;99.90;;;;;;4770652;30;20277;-82
2021/05/16 04:57:50;;;;;;;9.52;7.53;;;;;;;;;;4770466;30;20202;-81
2021/05/16 05:00:18;;;;;;;12.93;7.63;;;12.60;99.90;;;;;;4770333;30;20194;-81
2021/05/16 05:02:46;;;;;;;10.25;7.55;;;13.20;99.90;;;;;;4770507;30;20769;-83
2021/05/16 05:05:13;;;;;;;10.27;7.72;;;13.30;99.90;;;;;;4768908;30;20226;-81
2021/05/16 05:07:38;;;;;;;10.48;7.78;;;13.30;99.90;;;;;;4753875;30;20190;-82
2021/05/16 05:10:05;;;;;;;14.45;7.78;;;13.50;99.90;;;;;;4767318;30;20248;-83
2021/05/16 05:12:31;;;;;;;8.48;7.25;;;13.40;99.90;;;;;;4754755;30;20263;-81
2021/05/16 05:14:57;;;;;;;9.00;7.47;;;13.70;99.90;;;;;;4740366;30;20205;-81
2021/05/16 05:17:23;;;;;;;9.50;7.30;;;;;;;;;;4754466;30;21062;-82
2021/05/16 05:19:49;;;;;;;10.27;6.90;;;13.60;99.90;;;;;;4770489;30;20190;-81
2021/05/16 05:22:15;;;;;;;12.25;7.90;;;14.00;99.90;;;;;;4769355;30;20569;-81
2021/05/16 05:24:41;;;;;;;9.82;7.50;;;;;;;;;;4738057;30;20195;-82
2021/05/16 05:27:07;;;;;;;8.10;6.80;;;;;;;;;;4753067;30;20565;-82
2021/05/16 05:29:33;;;;;;;8.40;6.60;;;14.50;99.90;;;;;;4753802;30;20224;-83
2021/05/16 05:31:59;;;;;;;12.88;6.78;;;14.00;99.90;;;;;;4753351;30;20633;-82
2021/05/16 05:34:25;;;;;;;9.45;6.90;;;;;;;;;;4769507;30;20268;-81
2021/05/16 05:36:52;;;;;;;10.10;6.53;;;14.40;99.90;;;;;;4769436;30;20193;-82
2021/05/16 05:39:18;;;;;;;9.20;6.80;;;14.30;99.90;;;;;;4737623;30;20201;-82
2021/05/16 05:41:45;;;;;;;12.32;7.05;;;15.10;99.90;;;;;;4753054;30;20214;-82
2021/05/16 05:44:12;;;;;;;7.20;5.90;;;14.70;99.90;;;;;;4753253;30;20196;-83
2021/05/16 05:46:38;;;;;;;8.45;6.20;;;;;;;;;;4739014;30;20636;-82
2021/05/16 05:49:03;;;;;;;7.15;6.13;;;15.40;99.90;;;;;;4753632;30;20259;-84
2021/05/16 05:51:29;;;;;;;8.05;6.53;;;;;;;;;;4769041;30;20203;-83
2021/05/16 05:53:55;;;;;;;10.60;6.47;;;;;;;;;;4769276;30;20210;-85
2021/05/16 05:56:21;;;;;;;12.50;6.20;;;15.30;99.90;;;;;;4752886;30;20209;-83
2021/05/16 05:58:47;;;;;;;11.60;6.68;;;15.90;99.90;;;;;;4770083;30;20190;-82
2021/05/16 06:01:13;;;;;;;8.88;6.28;;;;;;;;;;4738705;30;20688;-83
2021/05/16 06:03:39;;;;;;;11.80;6.38;;;15.70;99.90;;;;;;4753592;30;20570;-83
2021/05/16 06:06:05;;;;;;;11.82;6.53;;;15.80;99.90;;;;;;4739263;30;20648;-84
2021/05/16 06:08:30;;;;;;;6.32;5.18;;;15.50;99.90;;;;;;4777315;30;20617;-84
2021/05/16 06:10:56;;;;;;;6.70;5.55;;;16.00;99.90;;;;;;4753208;30;20636;-84
2021/05/16 06:13:22;;;;;;;7.15;5.60;;;16.00;99.90;;;;;;4753773;30;20189;-84
2021/05/16 06:15:48;;;;;;;8.55;5.85;;;;;;;;;;4770988;30;20665;-83
2021/05/16 06:18:14;;;;;;;8.75;6.28;;;16.20;99.90;;;;;;4753314;30;20242;-85
2021/05/16 06:20:40;;;;;;;8.38;5.57;;;;;;;;;;4739506;30;20201;-85
2021/05/16 06:23:08;;;;;;;6.97;5.50;;;16.80;99.90;;;;;;4769548;30;20202;-84
2021/05/16 06:25:34;;;;;;;7.30;5.70;;;16.70;99.90;;;;;;4754257;30;20194;-84
2021/05/16 06:28:00;;;;;;;6.55;4.72;;;;;;;;;;4770075;30;20205;-81
2021/05/16 06:30:26;;;;;;;8.38;5.07;;;15.50;99.90;;;;;;4769967;30;20277;-85
2021/05/16 06:32:52;;;;;;;7.18;5.53;;;16.40;99.90;;;;;;4742893;30;20198;-82
2021/05/16 06:35:18;;;;;;;8.77;5.45;;;16.60;99.90;;;;;;4779783;30;20190;-83
2021/05/16 06:37:47;;;;;;;11.02;5.93;;;17.20;99.90;;;;;;4768891;30;20204;-83
2021/05/16 06:40:14;;;;;;;8.63;5.55;;;17.10;99.90;;;;;;4769000;30;20200;-84
2021/05/16 06:42:41;;;;;;;7.95;5.38;;;17.20;99.90;;;;;;4768440;30;20313;-85
2021/05/16 06:45:08;;;;;;;6.53;4.45;;;17.30;99.90;;;;;;4735711;30;20213;-83
2021/05/16 06:47:33;;;;;;;5.78;4.72;;;17.10;99.90;;;;;;4752067;30;20190;-84
2021/05/16 06:50:00;;;;;;;5.60;4.45;;;17.40;99.90;;;;;;4752576;30;20872;-85
2021/05/16 06:52:25;;;;;;;10.60;5.05;;;17.60;99.90;;;;;;4751782;30;20209;-84
2021/05/16 06:54:51;;;;;;;6.38;4.43;;;17.80;99.90;;;;;;4768214;30;20186;-84
2021/05/16 06:57:18;;;;;;;6.07;4.32;;;;;;;;;;4767526;30;20275;-83
2021/05/16 06:59:45;;;;;;;4.32;3.78;;;18.00;99.90;;;;;;4752342;30;20200;-84
2021/05/16 07:02:11;;;;;;;7.75;4.55;;;17.70;99.90;;;;;;4751862;30;20221;-83
2021/05/16 07:04:36;;;;;;;7.00;4.45;;;17.50;99.90;;;;;;4767928;30;20239;-83
2021/05/16 07:07:03;;;;;;;4.38;3.53;;;;;;;;;;4751219;30;20607;-85
2021/05/16 07:09:28;;;;;;;3.88;3.47;;;18.10;99.90;;;;;;4751871;30;20190;-83
2021/05/16 07:11:55;;;;;;;9.48;3.97;;;;;;;;;;4753658;30;20618;-82
2021/05/16 07:14:21;;;;;;;4.95;3.80;;;;;;;;;;4766416;30;20190;-82
2021/05/16 07:16:47;;;;;;;6.43;3.60;;;17.70;99.90;;;;;;4749460;30;20290;-86
2021/05/16 07:19:12;;;;;;;3.53;2.85;;;18.00;99.90;;;;;;4762800;30;20350;-83
2021/05/16 07:21:38;;;;;;;5.32;3.45;;;18.30;99.90;;;;;;4768020;30;20214;-84
2021/05/16 07:24:05;;;;;;;5.82;2.90;;;18.80;99.90;;;;;;4767705;30;20194;-85
2021/05/16 07:26:31;;;;;;;7.75;4.88;;;18.60;99.90;;;;;;4766687;30;20190;-83
2021/05/16 07:28:57;;;;;;;4.82;3.55;;;18.60;99.90;;;;;;4747252;30;20280;-83
2021/05/16 07:31:23;;;;;;;4.82;3.20;;;;;;;;;;4752455;30;20289;-83
2021/05/16 07:33:49;;;;;;;3.47;3.10;;;18.70;99.90;;;;;;4748930;30;20193;-83
2021/05/16 07:36:15;;;;;;;3.70;2.70;;;;;;;;;;4738282;30;20201;-83
2021/05/16 07:38:41;;;;;;;3.25;2.75;;;19.20;99.90;;;;;;4768392;30;20190;-84
2021/05/16 07:41:07;;;;;;;4.75;3.03;;;18.80;99.90;;;;;;4737957;30;20217;-82
2021/05/16 07:43:32;;;;;;;6.07;2.85;;;18.80;99.90;;;;;;4734263;30;20206;-83
2021/05/16 07:45:58;;;;;;;3.03;2.53;;;;;;;;;;4751408;30;20194;-84
2021/05/16 07:48:30;;;;;;;5.22;2.63;;;;;;;;;;4753098;30;20321;-83
2021/05/16 07:50:58;;;;;;;5.22;2.83;;;19.10;99.90;;;;;;4751192;30;20202;-84
2021/05/16 07:53:24;;;;;;;3.90;2.75;;;18.60;99.90;;;;;;4785278;30;20192;-86
2021/05/16 07:55:51;;;;;;;3.70;2.90;;;;;;;;;;4761685;29;20269;-83
2021/05/16 07:58:16;;;;;;;3.42;2.63;;;18.90;99.90;;;;;;4761424;30;20186;-87
2021/05/16 08:00:43;;;;;;;3.47;2.88;;;;;;;;;;4791816;29;20219;-87
2021/05/16 08:03:08;;;;;;;4.50;3.33;;;19.20;99.90;;;;;;4777403;29;20190;-86
2021/05/16 08:05:34;;;;;;;3.35;2.72;;;19.20;99.90;;;;;;4772621;30;20190;-86
2021/05/16 08:08:00;;;;;;;4.40;3.10;;;;;;;;;;4755451;30;20258;-85
2021/05/16 08:10:27;;;;;;;3.47;2.80;;;19.60;99.90;;;;;;4766860;30;20666;-85
2021/05/16 08:12:54;;;;;;;5.53;2.58;;;19.60;99.90;;;;;;4765379;30;20563;-84
2021/05/16 08:15:20;;;;;;;3.53;2.60;;;20.00;99.90;;;;;;4758718;30;20208;-86
2021/05/16 08:17:46;;;;;;;4.25;2.50;;;19.60;99.90;;;;;;4743523;30;20245;-85
2021/05/16 08:20:13;;;;;;;4.70;2.63;;;19.30;99.90;;;;;;4751666;30;20229;-84
2021/05/16 08:22:39;;;;;;;4.50;2.60;;;19.60;99.90;;;;;;4756832;30;20300;-85
2021/05/16 08:25:08;;;;;;;3.35;2.22;;;19.30;99.90;;;;;;4773013;30;20566;-85
2021/05/16 08:27:34;;;;;;;3.67;2.25;;;19.30;99.90;;;;;;4761719;30;20214;-85
2021/05/16 08:30:00;;;;;;;5.55;2.22;;;19.30;99.90;;;;;;4742027;30;20733;-81
2021/05/16 08:32:26;;;;;;;3.85;2.40;;;;;;;;;;4756244;30;20190;-85
2021/05/16 08:34:52;;;;;;;4.30;2.70;;;19.30;99.90;;;;;;4757791;30;20301;-84
2021/05/16 08:37:18;;;;;;;4.63;2.50;;;18.90;99.90;;;;;;4758033;30;20182;-85
2021/05/16 08:39:45;;;;;;;4.68;2.30;;;19.40;99.90;;;;;;4757182;30;20217;-85
2021/05/16 08:42:12;;;;;;;3.95;2.05;;;;;;;;;;4772406;30;20337;-86
2021/05/16 08:44:37;;;;;;;2.58;1.70;;;19.50;99.90;;;;;;4740989;30;20197;-85
2021/05/16 08:47:04;;;;;;;5.20;1.80;;;19.10;99.90;;;;;;4741856;30;20559;-84
2021/05/16 08:49:30;;;;;;;3.05;1.50;;;19.00;99.90;;;;;;4756617;30;20629;-85
2021/05/16 08:51:56;;;;;;;1.92;1.42;;;19.20;99.90;;;;;;4756921;30;20255;-84
2021/05/16 08:54:23;;;;;;;1.50;1.23;;;19.20;99.90;;;;;;4756985;30;20186;-84
2021/05/16 08:56:51;;;;;;;1.35;1.25;;;19.30;99.90;;;;;;4755798;30;20285;-85
2021/05/16 08:59:17;;;;;;;1.50;1.40;;;19.50;99.90;;;;;;4756748;30;20247;-84
2021/05/16 09:01:53;;;;;;;1.60;1.50;;;19.00;99.90;;;;;;4756730;30;20210;-83
2021/05/16 09:04:30;;;;;;;3.58;1.50;;;19.10;99.90;;;;;;4772776;30;20190;-83
2021/05/16 09:06:57;;;;;;;3.58;1.77;;;18.80;99.90;;;;;;4758051;30;20186;-85
2021/05/16 09:09:31;;;;;;;2.88;1.75;;;19.00;99.90;;;;;;4741883;30;20194;-84
2021/05/16 09:12:02;;;;;;;2.17;1.85;;;18.90;99.90;;;;;;4742842;30;20263;-84
2021/05/16 09:14:48;;;;;;;2.90;1.85;;;18.50;99.90;;;;;;4754666;30;20190;-84
2021/05/16 09:17:32;;;;;;;2.17;1.77;;;19.00;99.90;;;;;;4754561;30;20189;-85
2021/05/16 09:20:08;;;;;;;2.70;1.90;;;18.50;99.90;;;;;;4771101;30;20182;-84
2021/05/16 09:22:46;;;;;;;4.60;2.00;;;18.70;99.90;;;;;;4770406;30;20229;-86
2021/05/16 09:25:21;;;;;;;2.22;2.03;;;19.00;99.90;;;;;;4755275;30;20186;-86
2021/05/16 09:27:52;;;;;;;1.98;1.63;;;18.80;99.90;;;;;;4754768;30;20239;-85
2021/05/16 09:30:18;;;;;;;1.83;1.50;;;18.90;99.90;;;;;;4754813;30;20193;-88
2021/05/16 09:32:52;;;;;;;2.38;1.65;;;18.80;99.90;;;;;;4755853;30;20194;-84
2021/05/16 09:35:17;;;;;;;3.63;1.50;;;18.80;99.90;;;;;;4755425;30;20182;-84
2021/05/16 09:38:00;;;;;;;2.47;1.63;;;18.40;99.90;;;;;;4742561;30;20660;-85
2021/05/16 09:40:29;;;;;;;5.05;1.83;;;18.90;99.90;;;;;;4772522;30;20205;-85
2021/05/16 09:43:20;;;;;;;4.40;2.30;;;19.10;99.90;;;;;;4755978;30;20330;-84
2021/05/16 09:45:56;;;;;;;2.95;2.03;;;19.10;99.90;;;;;;4769482;30;20309;-84
2021/05/16 09:48:32;;;;;;;2.75;2.03;;;19.30;99.90;;;;;;4756325;30;20243;-85
2021/05/16 09:51:07;;;;;;;3.80;2.15;;;19.40;99.90;;;;;;4772699;30;20188;-85
2021/05/16 09:53:52;;;;;;;1.95;1.73;;;19.10;99.90;;;;;;4756791;30;20228;-84
2021/05/16 09:56:22;;;;;;;3.08;1.35;;;19.30;99.90;;;;;;4756641;30;20644;-85
2021/05/16 09:58:49;;;;;;;15.52;2.28;;;19.50;99.90;;;;;;4756475;30;20261;-85
2021/05/16 10:01:16;;;;;;;1.70;1.60;;;19.30;99.90;;;;;;4771742;30;20226;-85
2021/05/16 10:03:42;;;;;;;1.75;1.33;;;19.50;99.90;;;;;;4742247;30;20221;-84
2021/05/16 10:06:09;;;;;;;2.22;1.40;;;;;;;;;;4771548;30;20186;-85
2021/05/16 10:08:36;;;;;;;1.50;1.40;;;19.10;99.90;;;;;;4771642;30;20201;-84
2021/05/16 10:11:03;;;;;;;4.10;1.55;;;19.00;99.90;;;;;;4755936;30;20277;-84
2021/05/16 10:13:33;;;;;;;2.10;1.60;;;19.00;99.90;;;;;;4771945;30;20243;-85
2021/05/16 10:16:00;;;;;;;5.82;1.90;;;19.00;99.90;;;;;;4771687;30;20250;-84
2021/05/16 10:18:28;;;;;;;1.95;1.40;;;18.40;99.90;;;;;;4761602;30;20322;-83
2021/05/16 10:20:57;;;;;;;2.15;1.50;;;19.40;99.90;;;;;;4785962;30;20196;-85
2021/05/16 10:23:40;;;;;;;1.80;1.70;;;18.90;99.90;;;;;;4766149;30;20210;-84
2021/05/16 10:26:22;;;;;;;1.60;1.50;;;19.20;99.90;;;;;;4769186;30;20190;-84
2021/05/16 10:28:58;;;;;;;2.38;1.70;;;19.60;99.90;;;;;;4753591;30;20193;-84
2021/05/16 10:31:42;;;;;;;2.15;1.70;;;19.30;99.90;;;;;;4768096;30;20189;-85
2021/05/16 10:34:26;;;;;;;2.47;1.52;;;20.20;99.90;;;;;;4769543;30;20609;-86
2021/05/16 10:36:53;;;;;;;2.00;1.80;;;20.20;99.90;;;;;;4771609;30;20553;-85
2021/05/16 10:39:41;;;;;;;3.13;1.58;;;20.50;99.90;;;;;;4753881;30;20201;-86
2021/05/16 10:42:14;;;;;;;2.67;1.65;;;20.60;99.90;;;;;;4767476;30;20221;-85
2021/05/16 10:44:59;;;;;;;3.72;1.60;;;20.80;99.90;;;;;;4753593;30;20182;-83
2021/05/16 10:47:56;;;;;;;1.52;1.38;;;21.60;99.90;;;;;;4770396;30;20189;-82
2021/05/16 10:50:45;;;;;;;1.90;1.70;;;21.90;99.90;;;;;;4743573;30;20679;-84
2021/05/16 10:53:15;;;;;;;1.40;1.30;;;21.60;99.90;;;;;;4768719;30;20196;-85
2021/05/16 10:55:44;;;;;;;2.53;1.48;;;21.00;99.90;;;;;;4766287;30;20181;-85
2021/05/16 10:58:35;;;;;;;2.90;2.00;;;20.80;99.90;;;;;;4753435;30;20289;-88
2021/05/16 11:01:30;;;;;;;1.60;1.50;;;20.60;99.90;;;;;;4765111;30;20549;-87
2021/05/16 11:03:58;;;;;;;2.17;1.70;;;20.80;99.90;;;;;;4767885;30;20198;-86
2021/05/16 11:06:44;;;;;;;2.58;1.98;;;21.40;99.90;;;;;;4755172;30;20651;-85
2021/05/16 11:09:13;;;;;;;1.73;1.60;;;21.70;99.90;;;;;;4753564;30;20659;-85
2021/05/16 11:11:59;;;;;;;7.22;1.70;;;21.10;99.90;;;;;;4767414;30;20190;-85
2021/05/16 11:14:35;;;;;;;1.88;1.70;;;20.90;99.90;;;;;;4754267;30;20608;-85
2021/05/16 11:17:11;;;;;;;2.38;1.70;;;20.90;99.90;;;;;;4767503;30;20197;-84
2021/05/16 11:19:37;;;;;;;2.35;1.80;;;21.30;99.90;;;;;;4754716;30;20197;-84
2021/05/16 11:22:16;;;;;;;2.00;1.73;;;21.10;99.90;;;;;;4754184;30;20302;-86
2021/05/16 11:24:50;;;;;;;4.63;2.38;;;20.50;99.90;;;;;;4753450;30;20190;-84
2021/05/16 11:27:20;;;;;;;2.22;1.77;;;20.20;99.90;;;;;;4759910;30;20595;-87
2021/05/16 11:29:55;;;;;;;2.13;1.60;;;20.80;99.90;;;;;;4754619;30;20201;-86
2021/05/16 11:32:27;;;;;;;7.88;3.03;;;20.50;99.90;;;;;;4753448;30;20626;-85
2021/05/16 11:35:18;;;;;;;2.60;1.48;;;21.40;99.90;;;;;;4770150;30;20193;-85
2021/05/16 11:37:51;;;;;;;4.10;1.77;;;21.40;99.90;;;;;;4766649;30;20547;-86
2021/05/16 11:40:18;;;;;;;1.90;1.80;;;20.70;99.90;;;;;;4752767;30;20184;-84
2021/05/16 11:42:45;;;;;;;1.45;1.35;;;;;;;;;;4769213;30;20220;-85
2021/05/16 11:45:15;;;;;;;2.83;1.65;;;21.10;99.90;;;;;;4742666;30;20197;-88
2021/05/16 11:47:44;;;;;;;1.65;1.42;;;21.20;99.90;;;;;;4743943;30;20741;-85
2021/05/16 11:50:11;;;;;;;1.63;1.52;;;21.40;99.40;;;;;;4756104;30;20193;-85
2021/05/16 11:52:37;;;;;;;1.75;1.50;;;21.80;99.90;;;;;;4754308;30;20186;-86
2021/05/16 11:55:05;;;;;;;4.78;1.35;;;21.60;99.90;;;;;;4740869;30;20206;-84
2021/05/16 11:57:31;;;;;;;1.50;1.40;;;22.50;98.20;;;;;;4753735;30;20190;-85
2021/05/16 11:59:57;;;;;;;2.20;0.90;;;22.30;93.40;;;;;;4753428;30;20201;-85
2021/05/16 12:02:33;;;;;;;1.20;1.10;;;21.40;92.90;;;;;;4770127;30;20209;-86
2021/05/16 12:04:59;;;;;;;1.98;1.83;;;;;;;;;;4754662;30;20206;-89
2021/05/16 12:07:28;;;;;;;6.50;1.50;;;21.20;93.60;;;;;;4751525;30;20190;-85
2021/05/16 12:09:54;;;;;;;1.67;1.25;;;21.80;95.30;;;;;;4767336;30;20677;-84
2021/05/16 12:12:23;;;;;;;1.45;1.02;;;21.30;93.40;;;;;;4737722;30;20213;-84
2021/05/16 12:14:50;;;;;;;1.77;1.15;;;21.40;96.80;;;;;;4752268;30;20306;-85
2021/05/16 12:17:28;;;;;;;1.35;1.25;;;21.10;95.20;;;;;;4737366;30;20649;-87
2021/05/16 12:19:55;;;;;;;1.20;1.10;;;20.70;98.70;;;;;;4739463;30;20665;-84
2021/05/16 12:22:32;;;;;;;1.95;1.15;;;20.80;98.30;;;;;;4751779;30;20244;-85
2021/05/16 12:24:58;;;;;;;1.20;1.10;;;21.20;99.10;;;;;;4752409;30;20212;-83
2021/05/16 12:27:25;;;;;;;1.20;1.10;;;20.70;94.30;;;;;;4753880;30;20567;-84
2021/05/16 12:29:51;;;;;;;1.42;1.17;;;20.30;98.90;;;;;;4753652;30;20690;-84
2021/05/16 12:32:21;;;;;;;3.88;1.38;;;20.90;98.60;;;;;;4769862;30;20198;-85
2021/05/16 12:34:48;;;;;;;10.48;2.15;;;20.50;94.70;;;;;;4754112;30;20236;-84
2021/05/16 12:37:22;;;;;;;1.40;1.20;;;20.30;95.80;;;;;;4739132;30;20289;-86
2021/05/16 12:39:50;;;;;;;1.40;1.20;;;20.40;99.30;;;;;;4740555;30;20216;-85
2021/05/16 12:42:32;;;;;;;2.40;1.20;;;20.40;94.70;;;;;;4754528;30;20218;-84
2021/05/16 12:45:19;;;;;;;1.45;1.20;;;20.50;94.70;;;;;;4753545;30;20247;-83
2021/05/16 12:48:10;;;;;;;2.97;1.30;;;20.40;99.90;;;;;;4769638;30;20641;-82
2021/05/16 12:50:45;;;;;;;1.20;1.10;;;20.50;96.20;;;;;;4772547;30;20659;-83
2021/05/16 12:53:32;;;;;;;1.10;1.00;;;20.40;95.30;;;;;;4772517;30;20189;-83
2021/05/16 12:56:20;;;;;;;2.97;1.30;;;20.70;99.10;;;;;;4741801;30;20209;-83
2021/05/16 12:59:01;;;;;;;1.33;1.23;;;20.60;98.90;;;;;;4756609;30;20560;-84
2021/05/16 13:01:33;;;;;;;1.30;1.20;;;20.70;99.50;;;;;;4742838;30;20771;-83
2021/05/16 13:04:02;;;;;;;1.45;1.30;;;20.30;99.10;;;;;;4756400;30;20190;-84
2021/05/16 13:06:29;;;;;;;1.30;1.20;;;20.10;99.90;;;;;;4741761;30;20285;-82